Terminal Aerodrome Forecast
Issued by NWS

Home | Current Version | Previous Version | Text Only | Print | Product List | Glossary On
Versions: 1 2 3 4 5 6 7 8 9 10 11 12 13
486
FTUS42 KGSP 041944 AAA
TAFAND
TAF AMD
KAND 041944Z 0420/0518 07008KT 5SM -RA BR SCT009 BKN015 OVC035
     FM042100 06007KT 3SM -RA BR OVC009
     FM050700 04004KT 2SM BR OVC003 PROB30 0507/0513 1SM -RA BR
      OVC003
     FM051500 07003KT 5SM BR OVC008 PROB30 0515/0518 3SM -RA BR
      OVC003=

USA.gov is the U.S. government's official web portal to all federal, state and local government web resources and services.